Time;durP1;ratioP1;P1;durP2;ratioP2;P2;SDS_P1;SDS_P2;PMS_P1;PMS_P2;Temp;Humidity;BMP_temperature;BMP_pressure;BME280_temperature;BME280_humidity;BME280_pressure;Samples;Min_cycle;Max_cycle;Signal;HPM_P1;HPM_P2
2021/11/12 00:14:31;;;;;;;;;62.50;51.50;;;;;;;;5091018;27;45723;-86
2021/11/12 00:16:57;;;;;;;;;68.25;51.75;;;;;;;;5090846;27;45484;-86
2021/11/12 00:19:22;;;;;;;;;64.00;51.25;;;;;;;;5090879;27;45329;-85
2021/11/12 00:21:47;;;;;;;;;62.00;47.33;;;;;;;;5089567;27;45366;-86
2021/11/12 00:24:13;;;;;;;;;74.67;60.67;;;;;;;;5089269;27;45342;-85
2021/11/12 00:26:39;;;;;;;;;70.00;55.00;;;;;;;;5088697;27;48025;-85
2021/11/12 00:29:06;;;;;;;;;67.00;51.50;;;;;;;;5087437;27;45620;-85
2021/11/12 00:32:01;;;;;;;;;60.25;50.25;;;;;;;;5089287;27;45357;-86
2021/11/12 00:36:57;;;;;;;;;63.50;49.25;;;;;;;;5070240;27;45975;-85
2021/11/12 00:39:29;;;;;;;;;76.00;59.50;;;;;;;;5068754;28;45492;-86
2021/11/12 00:42:10;;;;;;;;;63.75;49.50;;;;;;;;5069074;28;45544;-85
2021/11/12 00:44:45;;;;;;;;;67.50;51.25;;;;;;;;5085809;27;46130;-86
2021/11/12 00:47:56;;;;;;;;;60.00;48.50;;;;;;;;5071359;27;47650;-86
2021/11/12 00:53:41;;;;;;;;;64.75;50.25;;;;;;;;5090664;27;46115;-85
2021/11/12 00:55:27;;;;;;;;;62.75;48.00;;;;;;;;5089477;27;45393;-85
2021/11/12 00:57:53;;;;;;;;;64.75;51.25;;;;;;;;5071732;27;47480;-86
2021/11/12 01:00:19;;;;;;;;;67.00;51.00;;;;;;;;5071768;27;46004;-86
2021/11/12 01:02:45;;;;;;;;;68.25;53.50;;;;;;;;5090524;27;45435;-85
2021/11/12 01:05:11;;;;;;;;;61.50;46.50;;;;;;;;5071095;27;45545;-85
2021/11/12 01:07:37;;;;;;;;;62.50;48.25;;;;;;;;5071579;27;47070;-85
2021/11/12 01:10:04;;;;;;;;;67.50;54.75;;;;;;;;5071231;27;45390;-86
2021/11/12 01:12:29;;;;;;;;;58.75;46.25;;;;;;;;5071284;27;45801;-86
2021/11/12 01:14:56;;;;;;;;;61.25;50.00;;;;;;;;5090557;27;45653;-85
2021/11/12 01:17:21;;;;;;;;;66.25;52.75;;;;;;;;5070811;27;47368;-85
2021/11/12 01:19:47;;;;;;;;;62.25;47.50;;;;;;;;5090158;27;45561;-85
2021/11/12 01:22:12;;;;;;;;;56.50;47.75;;;;;;;;5071084;27;45385;-85
2021/11/12 01:24:38;;;;;;;;;62.25;51.00;;;;;;;;5071896;27;45599;-85
2021/11/12 01:27:03;;;;;;;;;63.75;51.00;;;;;;;;5070940;27;48017;-86
2021/11/12 01:29:29;;;;;;;;;61.00;49.00;;;;;;;;5071553;27;45780;-85
2021/11/12 01:31:54;;;;;;;;;62.67;50.33;;;;;;;;5089961;27;45391;-85
2021/11/12 01:34:20;;;;;;;;;60.00;49.33;;;;;;;;5089680;27;45438;-85
2021/11/12 01:36:46;;;;;;;;;64.75;51.00;;;;;;;;5089829;27;46442;-85
2021/11/12 01:39:22;;;;;;;;;60.00;50.75;;;;;;;;5071220;27;45735;-85
2021/11/12 01:41:50;;;;;;;;;62.50;49.25;;;;;;;;5075162;27;45522;-85
2021/11/12 01:44:16;;;;;;;;;59.50;48.00;;;;;;;;5084494;27;45490;-86
2021/11/12 01:49:40;;;;;;;;;58.25;48.00;;;;;;;;5074646;27;45536;-85
2021/11/12 01:52:14;;;;;;;;;57.00;46.00;;;;;;;;5091769;27;45457;-86
2021/11/12 01:54:55;;;;;;;;;61.00;49.75;;;;;;;;5092126;27;45611;-85
2021/11/12 01:57:29;;;;;;;;;59.75;48.25;;;;;;;;5090775;27;47470;-86
2021/11/12 01:59:56;;;;;;;;;56.25;46.50;;;;;;;;5091771;27;45727;-84
2021/11/12 02:02:22;;;;;;;;;62.75;50.75;;;;;;;;5092890;27;45625;-85
2021/11/12 02:04:48;;;;;;;;;65.75;51.00;;;;;;;;5093199;27;45575;-84
2021/11/12 02:07:13;;;;;;;;;59.75;48.00;;;;;;;;5092414;27;45928;-85
2021/11/12 02:09:38;;;;;;;;;59.00;49.00;;;;;;;;5090968;27;45491;-85
2021/11/12 02:12:20;;;;;;;;;59.50;48.00;;;;;;;;5091081;27;45443;-86
2021/11/12 02:14:47;;;;;;;;;61.25;48.25;;;;;;;;5093488;27;45600;-85
2021/11/12 02:17:15;;;;;;;;;57.25;46.75;;;;;;;;5090405;27;47971;-86
2021/11/12 02:19:48;;;;;;;;;59.00;46.50;;;;;;;;5091114;27;46069;-85
2021/11/12 02:22:15;;;;;;;;;45.25;37.25;;;;;;;;5092574;27;45774;-86
2021/11/12 02:24:46;;;;;;;;;62.00;46.25;;;;;;;;5091693;27;45451;-86
2021/11/12 02:27:13;;;;;;;;;48.75;39.75;;;;;;;;5092157;27;46599;-86
2021/11/12 02:29:45;;;;;;;;;44.00;41.50;;;;;;;;5092840;27;45525;-85
2021/11/12 02:32:14;;;;;;;;;60.25;46.75;;;;;;;;5091925;27;45797;-85
2021/11/12 02:34:40;;;;;;;;;54.25;44.00;;;;;;;;5075547;27;45528;-86
2021/11/12 02:37:05;;;;;;;;;51.00;42.00;;;;;;;;5070144;28;48007;-85
2021/11/12 02:39:32;;;;;;;;;56.33;46.00;;;;;;;;5070445;28;45750;-86
2021/11/12 02:41:57;;;;;;;;;57.75;44.50;;;;;;;;5070582;28;45662;-86
2021/11/12 02:44:23;;;;;;;;;59.67;48.33;;;;;;;;5070238;28;45486;-86
2021/11/12 02:46:49;;;;;;;;;55.00;44.50;;;;;;;;5070315;28;47187;-85
2021/11/12 02:49:14;;;;;;;;;51.00;43.50;;;;;;;;5069764;28;45516;-85
2021/11/12 02:51:39;;;;;;;;;56.33;44.67;;;;;;;;5070965;27;45555;-86
2021/11/12 02:54:08;;;;;;;;;54.25;43.50;;;;;;;;5070219;28;45472;-85
2021/11/12 02:56:33;;;;;;;;;52.50;40.25;;;;;;;;5069970;28;47338;-86
2021/11/12 02:59:00;;;;;;;;;49.00;41.00;;;;;;;;5070610;28;45331;-85
2021/11/12 03:01:26;;;;;;;;;52.00;43.00;;;;;;;;5070068;28;45544;-86
2021/11/12 03:03:53;;;;;;;;;54.50;44.75;;;;;;;;5072122;27;45528;-85
2021/11/12 03:06:18;;;;;;;;;48.75;41.50;;;;;;;;5071205;28;45561;-86
2021/11/12 03:08:44;;;;;;;;;53.25;45.00;;;;;;;;5070931;28;46032;-85
2021/11/12 03:11:09;;;;;;;;;46.67;41.33;;;;;;;;5071421;28;45637;-86
2021/11/12 03:13:35;;;;;;;;;50.00;40.00;;;;;;;;5070303;28;45481;-85
2021/11/12 03:16:01;;;;;;;;;55.25;45.50;;;;;;;;5070324;28;47936;-86
2021/11/12 03:18:27;;;;;;;;;52.00;42.75;;;;;;;;5069272;28;45755;-86
2021/11/12 03:20:53;;;;;;;;;56.75;47.50;;;;;;;;5070253;28;45474;-86
2021/11/12 03:23:27;;;;;;;;;57.75;45.00;;;;;;;;5071297;27;45477;-85
2021/11/12 04:22:07;;;;;;;;;50.50;41.75;;;;;;;;5091075;27;45546;-84
2021/11/12 05:46:16;;;;;;;;;32.75;31.00;;;;;;;;5073146;28;45558;-85
2021/11/12 05:56:45;;;;;;;;;33.00;29.25;;;;;;;;5073029;28;45771;-85
2021/11/12 05:59:12;;;;;;;;;25.25;20.50;;;;;;;;5070962;27;45332;-85
2021/11/12 06:01:38;;;;;;;;;24.75;24.00;;;;;;;;5070814;27;45528;-85
2021/11/12 06:04:04;;;;;;;;;20.50;19.75;;;;;;;;5072660;28;45528;-85
2021/11/12 06:06:29;;;;;;;;;32.25;24.50;;;;;;;;5070908;27;46806;-85
2021/11/12 06:08:55;;;;;;;;;16.00;14.50;;;;;;;;5071154;27;45719;-85
2021/11/12 06:11:20;;;;;;;;;19.33;19.00;;;;;;;;5071315;27;45510;-85
2021/11/12 06:13:46;;;;;;;;;23.75;21.50;;;;;;;;5071696;27;45558;-85
2021/11/12 06:16:11;;;;;;;;;19.75;19.25;;;;;;;;5070313;27;47044;-85
2021/11/12 06:18:36;;;;;;;;;20.67;19.33;;;;;;;;5070888;27;45605;-85
2021/11/12 06:21:02;;;;;;;;;22.67;19.33;;;;;;;;5071099;27;45708;-85
2021/11/12 06:23:29;;;;;;;;;19.25;17.25;;;;;;;;5070619;27;45644;-84
2021/11/12 06:25:54;;;;;;;;;23.50;20.50;;;;;;;;5071026;27;47874;-85
2021/11/12 06:28:20;;;;;;;;;21.50;20.25;;;;;;;;5070773;27;45496;-85
2021/11/12 06:30:45;;;;;;;;;20.67;18.67;;;;;;;;5072846;27;45563;-85
2021/11/12 06:33:10;;;;;;;;;17.00;15.75;;;;;;;;5073322;27;45727;-85
2021/11/12 06:35:36;;;;;;;;;18.67;17.67;;;;;;;;5090492;27;47636;-85
2021/11/12 06:38:02;;;;;;;;;19.00;18.67;;;;;;;;5090748;27;45613;-85
2021/11/12 06:40:28;;;;;;;;;20.00;18.50;;;;;;;;5091131;27;45401;-85
2021/11/12 06:43:09;;;;;;;;;19.25;18.00;;;;;;;;5091367;27;45376;-85
2021/11/12 06:51:05;;;;;;;;;23.75;21.00;;;;;;;;5092362;27;45470;-85
2021/11/12 06:53:31;;;;;;;;;21.00;16.00;;;;;;;;5090871;27;45505;-84
2021/11/12 06:56:00;;;;;;;;;16.00;15.00;;;;;;;;5091203;27;48386;-84
2021/11/12 06:58:25;;;;;;;;;22.50;21.75;;;;;;;;5109879;27;45499;-85
2021/11/12 07:00:50;;;;;;;;;26.33;20.33;;;;;;;;5113076;27;45342;-84
2021/11/12 07:03:16;;;;;;;;;22.67;19.33;;;;;;;;5113351;27;44899;-84
2021/11/12 07:05:41;;;;;;;;;15.67;14.33;;;;;;;;5114864;27;47847;-84
2021/11/12 07:08:06;;;;;;;;;16.67;15.67;;;;;;;;5115313;27;44786;-84
2021/11/12 07:10:31;;;;;;;;;24.33;19.67;;;;;;;;5114572;27;44748;-85
2021/11/12 07:12:56;;;;;;;;;19.33;16.67;;;;;;;;5114589;27;45409;-85
2021/11/12 07:15:22;;;;;;;;;18.00;15.67;;;;;;;;5096209;27;47115;-86
2021/11/12 07:17:48;;;;;;;;;20.33;16.00;;;;;;;;5092144;27;45355;-85
2021/11/12 07:20:14;;;;;;;;;25.00;21.75;;;;;;;;5091605;27;45463;-85
2021/11/12 07:22:39;;;;;;;;;26.00;25.50;;;;;;;;5094234;27;45338;-85
2021/11/12 07:25:05;;;;;;;;;20.00;19.25;;;;;;;;5092460;27;47037;-85
2021/11/12 07:27:31;;;;;;;;;21.25;18.00;;;;;;;;5095781;27;45358;-86
2021/11/12 07:29:56;;;;;;;;;22.25;20.50;;;;;;;;5091739;27;45931;-86
2021/11/12 07:32:22;;;;;;;;;24.25;21.00;;;;;;;;5090558;27;45548;-85
2021/11/12 07:34:50;;;;;;;;;18.00;16.00;;;;;;;;5073788;27;47094;-85
2021/11/12 07:37:15;;;;;;;;;19.50;17.00;;;;;;;;5068794;27;45826;-85
2021/11/12 07:45:01;;;;;;;;;20.75;19.50;;;;;;;;5089234;27;45779;-85
2021/11/12 07:47:27;;;;;;;;;18.75;16.00;;;;;;;;5072931;27;45853;-85
2021/11/12 07:49:57;;;;;;;;;17.25;15.50;;;;;;;;5073315;27;45755;-85
2021/11/12 07:52:25;;;;;;;;;21.25;19.25;;;;;;;;5072878;27;45806;-85
2021/11/12 07:54:50;;;;;;;;;18.75;17.25;;;;;;;;5073345;27;47390;-85
2021/11/12 07:57:15;;;;;;;;;16.67;15.00;;;;;;;;5090970;27;45509;-84
2021/11/12 07:59:41;;;;;;;;;16.00;15.67;;;;;;;;5073025;27;45524;-84
2021/11/12 08:02:06;;;;;;;;;21.75;18.50;;;;;;;;5072950;27;45680;-86
2021/11/12 08:04:33;;;;;;;;;18.00;15.50;;;;;;;;5090695;27;45819;-85
2021/11/12 08:07:00;;;;;;;;;22.50;16.00;;;;;;;;5072461;27;45872;-84
2021/11/12 08:09:29;;;;;;;;;20.00;16.25;;;;;;;;5072816;27;45613;-85
2021/11/12 08:12:02;;;;;;;;;16.25;15.25;;;;;;;;5073344;27;45636;-85
2021/11/12 08:14:34;;;;;;;;;18.25;15.75;;;;;;;;5072303;27;46737;-86
2021/11/12 08:24:49;;;;;;;;;20.25;18.75;;;;;;;;5091066;27;45283;-85
2021/11/12 08:30:19;;;;;;;;;23.00;20.00;;;;;;;;5090798;27;45568;-85
2021/11/12 08:40:40;;;;;;;;;22.00;19.50;;;;;;;;5090469;27;45317;-85
2021/11/12 08:45:43;;;;;;;;;26.50;25.50;;;;;;;;5090362;27;45989;-86
2021/11/12 08:48:13;;;;;;;;;22.00;21.25;;;;;;;;5088089;27;45410;-85
2021/11/12 08:50:39;;;;;;;;;28.50;27.00;;;;;;;;5087975;27;45477;-85
2021/11/12 08:53:07;;;;;;;;;65.75;50.25;;;;;;;;5088979;27;45511;-86
2021/11/12 08:55:34;;;;;;;;;36.50;33.75;;;;;;;;5090253;27;45602;-85
2021/11/12 08:57:59;;;;;;;;;37.50;32.75;;;;;;;;5089139;27;46156;-86
2021/11/12 09:00:25;;;;;;;;;32.25;29.50;;;;;;;;5088201;27;45358;-85
2021/11/12 09:02:51;;;;;;;;;30.75;29.00;;;;;;;;5089350;27;45568;-85
2021/11/12 09:05:17;;;;;;;;;30.00;29.25;;;;;;;;5088070;27;47326;-85
2021/11/12 09:07:45;;;;;;;;;29.50;25.50;;;;;;;;5088570;27;45685;-85
2021/11/12 09:10:10;;;;;;;;;32.75;29.25;;;;;;;;5088015;27;45724;-85
2021/11/12 09:12:35;;;;;;;;;33.00;29.00;;;;;;;;5088683;27;45636;-85
2021/11/12 09:15:07;;;;;;;;;34.00;33.00;;;;;;;;5093346;27;47997;-85
2021/11/12 09:17:32;;;;;;;;;47.25;39.75;;;;;;;;5088753;27;45352;-85
2021/11/12 09:19:57;;;;;;;;;32.33;29.33;;;;;;;;5089484;27;45807;-85
2021/11/12 09:22:25;;;;;;;;;30.00;29.25;;;;;;;;5088162;27;45393;-85
2021/11/12 09:24:51;;;;;;;;;39.25;32.00;;;;;;;;5088726;27;47219;-85
2021/11/12 09:27:17;;;;;;;;;34.00;30.75;;;;;;;;5088036;27;45799;-85
2021/11/12 09:29:43;;;;;;;;;36.25;33.00;;;;;;;;5088859;27;45771;-85
2021/11/12 09:32:09;;;;;;;;;37.50;32.50;;;;;;;;5089839;27;45595;-85
2021/11/12 09:34:37;;;;;;;;;38.50;34.75;;;;;;;;5074803;27;45524;-85
2021/11/12 09:37:02;;;;;;;;;40.75;36.75;;;;;;;;5069394;28;45328;-85
2021/11/12 09:39:28;;;;;;;;;36.25;33.25;;;;;;;;5070190;28;45382;-85
2021/11/12 09:41:53;;;;;;;;;54.50;40.75;;;;;;;;5069284;28;45536;-86
2021/11/12 09:44:19;;;;;;;;;39.00;34.00;;;;;;;;5069963;28;47187;-86
2021/11/12 09:46:44;;;;;;;;;38.00;34.00;;;;;;;;5068921;27;45677;-86
2021/11/12 09:49:10;;;;;;;;;36.25;33.50;;;;;;;;5068155;28;45874;-84
2021/11/12 09:51:35;;;;;;;;;34.67;32.33;;;;;;;;5070015;28;45467;-86
2021/11/12 09:54:00;;;;;;;;;40.33;31.00;;;;;;;;5068194;28;47406;-86
2021/11/12 09:56:26;;;;;;;;;40.00;31.25;;;;;;;;5069157;27;45876;-84
2021/11/12 09:58:51;;;;;;;;;31.00;28.75;;;;;;;;5068071;28;45583;-86
2021/11/12 10:01:26;;;;;;;;;30.75;29.25;;;;;;;;5069510;28;45582;-85
2021/11/12 10:03:51;;;;;;;;;28.00;27.25;;;;;;;;5071328;27;47081;-85
2021/11/12 10:06:21;;;;;;;;;37.33;33.33;;;;;;;;5070524;28;45586;-85
2021/11/12 10:08:46;;;;;;;;;39.75;36.00;;;;;;;;5071635;28;45390;-85
2021/11/12 10:11:21;;;;;;;;;32.00;31.33;;;;;;;;5071128;28;45571;-85
2021/11/12 10:13:47;;;;;;;;;41.00;34.75;;;;;;;;5070879;27;47776;-85
2021/11/12 10:16:21;;;;;;;;;38.50;34.00;;;;;;;;5071041;28;45382;-85
2021/11/12 10:19:05;;;;;;;;;36.75;36.25;;;;;;;;5071346;28;45584;-86
2021/11/12 10:21:35;;;;;;;;;41.00;30.75;;;;;;;;5070863;27;45337;-86
2021/11/12 10:24:03;;;;;;;;;39.75;33.75;;;;;;;;5071070;28;47183;-85
2021/11/12 10:26:30;;;;;;;;;43.75;39.00;;;;;;;;5071019;28;45815;-86
2021/11/12 10:28:59;;;;;;;;;44.75;39.25;;;;;;;;5070685;28;45862;-85
2021/11/12 10:31:25;;;;;;;;;42.25;37.50;;;;;;;;5070633;28;46221;-85
2021/11/12 10:33:51;;;;;;;;;42.25;37.00;;;;;;;;5079186;27;47417;-85
2021/11/12 10:36:18;;;;;;;;;41.00;36.75;;;;;;;;5090677;27;45758;-86
2021/11/12 10:38:44;;;;;;;;;42.50;37.25;;;;;;;;5090593;27;45411;-86
2021/11/12 10:41:14;;;;;;;;;43.50;37.25;;;;;;;;5092458;27;45523;-86
2021/11/12 10:43:39;;;;;;;;;44.50;38.25;;;;;;;;5092214;27;46649;-85
2021/11/12 10:46:08;;;;;;;;;40.67;37.33;;;;;;;;5090897;27;46057;-85
2021/11/12 10:48:33;;;;;;;;;43.50;38.50;;;;;;;;5092244;27;45394;-86
2021/11/12 10:51:13;;;;;;;;;39.67;37.00;;;;;;;;5090572;27;45482;-85
2021/11/12 10:53:48;;;;;;;;;41.25;36.75;;;;;;;;5090855;27;48036;-86
2021/11/12 10:56:13;;;;;;;;;43.75;40.00;;;;;;;;5090651;27;45797;-86
2021/11/12 10:58:55;;;;;;;;;40.33;38.00;;;;;;;;5090949;27;45355;-85
2021/11/12 11:01:36;;;;;;;;;40.50;35.00;;;;;;;;5091229;27;45533;-86
2021/11/12 11:04:22;;;;;;;;;44.50;37.50;;;;;;;;5090115;27;47954;-86
2021/11/12 11:06:48;;;;;;;;;45.00;37.50;;;;;;;;5092361;27;45410;-84
2021/11/12 11:09:13;;;;;;;;;43.75;38.75;;;;;;;;5090692;27;45467;-85
2021/11/12 11:11:40;;;;;;;;;47.33;37.67;;;;;;;;5090451;27;45434;-84
2021/11/12 11:14:25;;;;;;;;;42.00;36.50;;;;;;;;5089744;27;48050;-85
2021/11/12 11:16:50;;;;;;;;;44.00;37.75;;;;;;;;5092522;27;45385;-87
2021/11/12 11:19:31;;;;;;;;;46.00;39.67;;;;;;;;5091282;27;45903;-86
2021/11/12 11:22:06;;;;;;;;;43.50;37.50;;;;;;;;5092795;27;45405;-83
2021/11/12 11:24:32;;;;;;;;;41.75;37.75;;;;;;;;5092632;27;48188;-86
2021/11/12 11:26:58;;;;;;;;;48.00;40.75;;;;;;;;5091819;27;45885;-86
2021/11/12 11:29:23;;;;;;;;;48.00;40.75;;;;;;;;5090052;27;45339;-84
2021/11/12 11:31:49;;;;;;;;;48.67;40.67;;;;;;;;5090649;27;45485;-84
2021/11/12 11:34:14;;;;;;;;;45.25;40.00;;;;;;;;5077231;27;47341;-86
2021/11/12 11:36:44;;;;;;;;;46.75;41.00;;;;;;;;5071501;27;45415;-85
2021/11/12 11:39:10;;;;;;;;;49.25;42.00;;;;;;;;5070028;28;45651;-85
2021/11/12 11:41:37;;;;;;;;;46.25;40.50;;;;;;;;5071132;28;45496;-85
2021/11/12 11:44:04;;;;;;;;;55.50;44.00;;;;;;;;5081236;27;46068;-86
2021/11/12 11:46:31;;;;;;;;;49.50;41.25;;;;;;;;5072456;27;45689;-86
2021/11/12 11:48:57;;;;;;;;;46.75;39.50;;;;;;;;5072879;27;45528;-86
2021/11/12 11:51:23;;;;;;;;;57.25;42.00;;;;;;;;5072606;27;45819;-86
2021/11/12 11:53:49;;;;;;;;;55.33;44.00;;;;;;;;5091495;27;45537;-86
2021/11/12 11:56:14;;;;;;;;;43.00;39.00;;;;;;;;5072497;27;45542;-85
2021/11/12 11:58:42;;;;;;;;;52.00;42.67;;;;;;;;5073057;27;45503;-86
2021/11/12 12:01:13;;;;;;;;;50.00;42.00;;;;;;;;5072974;27;45587;-86
2021/11/12 12:03:39;;;;;;;;;52.00;41.25;;;;;;;;5090705;27;45590;-86
2021/11/12 12:06:05;;;;;;;;;48.00;40.00;;;;;;;;5072290;27;46213;-86
2021/11/12 12:08:31;;;;;;;;;54.00;44.50;;;;;;;;5091508;27;45466;-84
2021/11/12 12:11:18;;;;;;;;;51.25;41.50;;;;;;;;5091078;27;45639;-86
2021/11/12 12:13:43;;;;;;;;;54.25;45.75;;;;;;;;5091315;27;46275;-86
2021/11/12 12:16:08;;;;;;;;;55.67;43.67;;;;;;;;5091511;27;45754;-85
2021/11/12 12:18:43;;;;;;;;;56.00;43.33;;;;;;;;5072110;27;45572;-87
2021/11/12 12:21:36;;;;;;;;;54.25;45.25;;;;;;;;5072192;27;45541;-86
2021/11/12 12:39:41;;;;;;;;;51.75;41.75;;;;;;;;5070489;28;45839;-86
2021/11/12 12:42:12;;;;;;;;;46.25;40.25;;;;;;;;5056579;28;45379;-87
2021/11/12 13:18:47;;;;;;;;;50.00;41.00;;;;;;;;5058977;28;45459;-85
2021/11/12 13:20:42;;;;;;;;;49.00;41.75;;;;;;;;5069414;28;45658;-85
2021/11/12 13:23:13;;;;;;;;;47.75;41.00;;;;;;;;5069742;28;45604;-85
2021/11/12 13:25:39;;;;;;;;;54.75;46.00;;;;;;;;5069644;27;45515;-86
2021/11/12 13:28:04;;;;;;;;;50.33;43.00;;;;;;;;5069525;28;45292;-85
2021/11/12 13:30:29;;;;;;;;;48.00;40.67;;;;;;;;5067802;28;47138;-85
2021/11/12 13:32:54;;;;;;;;;53.00;44.00;;;;;;;;5069857;27;45348;-85
2021/11/12 13:35:33;;;;;;;;;49.00;41.33;;;;;;;;5089968;27;45566;-85
2021/11/12 13:37:59;;;;;;;;;44.75;38.00;;;;;;;;5093554;27;45397;-86
2021/11/12 13:40:28;;;;;;;;;48.00;39.50;;;;;;;;5091494;27;47258;-86
2021/11/12 13:42:53;;;;;;;;;45.50;39.00;;;;;;;;5092448;27;46256;-85
2021/11/12 13:45:20;;;;;;;;;45.50;38.25;;;;;;;;5093193;27;45461;-86
2021/11/12 13:47:46;;;;;;;;;48.50;41.00;;;;;;;;5091965;27;45629;-85
2021/11/12 13:50:13;;;;;;;;;48.75;38.25;;;;;;;;5093298;27;46491;-85
2021/11/12 13:52:42;;;;;;;;;44.25;38.50;;;;;;;;5092191;27;45514;-85
2021/11/12 13:55:11;;;;;;;;;42.00;36.00;;;;;;;;5091725;27;45661;-85
2021/11/12 13:57:36;;;;;;;;;43.00;37.25;;;;;;;;5091672;27;45517;-85
2021/11/12 14:00:05;;;;;;;;;41.75;37.25;;;;;;;;5092836;27;46032;-85
2021/11/12 14:02:49;;;;;;;;;40.50;36.00;;;;;;;;5092971;27;45529;-85
2021/11/12 14:05:15;;;;;;;;;31.50;28.75;;;;;;;;5091550;27;45870;-86
2021/11/12 14:07:40;;;;;;;;;39.00;35.00;;;;;;;;5093366;27;45421;-86
2021/11/12 14:10:07;;;;;;;;;34.75;31.25;;;;;;;;5091218;27;47966;-85
2021/11/12 14:12:33;;;;;;;;;39.25;36.25;;;;;;;;5092996;27;45844;-85
2021/11/12 14:15:21;;;;;;;;;38.75;35.50;;;;;;;;5091499;27;45478;-85
2021/11/12 14:17:55;;;;;;;;;36.75;34.25;;;;;;;;5090963;27;45445;-85
2021/11/12 14:22:57;;;;;;;;;34.50;32.75;;;;;;;;5093307;27;45432;-85
2021/11/12 14:25:29;;;;;;;;;34.25;32.00;;;;;;;;5092395;27;45642;-85
2021/11/12 14:28:09;;;;;;;;;27.00;26.00;;;;;;;;5093268;27;45376;-86
2021/11/12 14:33:34;;;;;;;;;25.25;23.00;;;;;;;;5086471;27;45943;-85
2021/11/12 14:38:54;;;;;;;;;20.50;19.50;;;;;;;;5071832;27;45345;-85
2021/11/12 14:51:46;;;;;;;;;19.75;18.25;;;;;;;;5092535;27;46086;-84
2021/11/12 14:54:13;;;;;;;;;16.75;16.25;;;;;;;;5091720;27;45822;-85
2021/11/12 14:56:42;;;;;;;;;21.50;19.25;;;;;;;;5092568;27;45350;-85
2021/11/12 14:59:14;;;;;;;;;17.50;17.25;;;;;;;;5092027;27;45515;-85
2021/11/12 15:01:41;;;;;;;;;14.00;14.00;;;;;;;;5092103;27;45452;-85
2021/11/12 15:04:06;;;;;;;;;19.25;18.25;;;;;;;;5073008;27;45588;-85
2021/11/12 15:06:34;;;;;;;;;19.25;17.75;;;;;;;;5092354;27;45400;-86
2021/11/12 15:11:32;;;;;;;;;23.25;20.00;;;;;;;;5092089;27;45608;-86
2021/11/12 15:14:09;;;;;;;;;19.50;18.50;;;;;;;;5092081;27;45525;-86
2021/11/12 15:16:36;;;;;;;;;19.75;18.00;;;;;;;;5091922;27;45499;-86
2021/11/12 15:19:04;;;;;;;;;22.25;20.50;;;;;;;;5073826;27;45419;-86
2021/11/12 15:21:34;;;;;;;;;19.75;19.25;;;;;;;;5073338;27;46082;-86
2021/11/12 15:29:18;;;;;;;;;19.50;19.50;;;;;;;;5091767;27;45303;-86
2021/11/12 15:32:23;;;;;;;;;20.75;19.75;;;;;;;;5091830;27;45525;-86
2021/11/12 15:34:44;;;;;;;;;19.75;16.50;;;;;;;;5085973;27;45548;-86
2021/11/12 15:37:23;;;;;;;;;21.00;20.75;;;;;;;;5091393;27;45466;-86
2021/11/12 15:40:00;;;;;;;;;22.00;20.75;;;;;;;;5073103;27;45421;-85
2021/11/12 15:43:11;;;;;;;;;21.50;19.50;;;;;;;;5091239;27;46340;-86
2021/11/12 15:47:53;;;;;;;;;19.75;19.75;;;;;;;;5092168;27;45556;-86
2021/11/12 15:50:24;;;;;;;;;20.75;19.00;;;;;;;;5092447;27;45481;-86
2021/11/12 15:53:04;;;;;;;;;18.25;17.75;;;;;;;;5092134;27;46289;-86
2021/11/12 16:08:35;;;;;;;;;24.25;20.75;;;;;;;;5091803;27;45788;-86
2021/11/12 16:13:28;;;;;;;;;23.00;21.00;;;;;;;;5090730;27;45532;-86
2021/11/12 16:21:12;;;;;;;;;20.67;20.33;;;;;;;;5090948;27;45411;-85
2021/11/12 16:26:23;;;;;;;;;24.50;23.50;;;;;;;;5090604;27;45867;-86
2021/11/12 16:31:24;;;;;;;;;28.00;27.00;;;;;;;;5090609;27;45507;-85
2021/11/12 16:33:50;;;;;;;;;33.25;31.25;;;;;;;;5082233;27;46356;-85
2021/11/12 16:36:15;;;;;;;;;29.50;28.50;;;;;;;;5070040;28;45999;-86
2021/11/12 16:38:42;;;;;;;;;29.33;27.67;;;;;;;;5069195;27;46021;-86
2021/11/12 16:41:12;;;;;;;;;33.50;31.00;;;;;;;;5070231;27;45554;-85
2021/11/12 16:46:31;;;;;;;;;35.00;32.25;;;;;;;;5090058;27;45413;-85
2021/11/12 16:49:07;;;;;;;;;31.75;30.25;;;;;;;;5072113;27;45444;-85
2021/11/12 17:04:57;;;;;;;;;42.67;37.00;;;;;;;;5089911;27;45716;-85
2021/11/12 17:47:40;;;;;;;;;33.75;30.50;;;;;;;;5089593;27;46545;-85
2021/11/12 21:48:36;;;;;;;;;36.50;33.50;;;;;;;;5088853;27;45294;-85
2021/11/12 21:51:03;;;;;;;;;35.00;34.25;;;;;;;;5089563;27;46071;-84
2021/11/12 21:53:28;;;;;;;;;39.50;35.50;;;;;;;;5089750;27;45987;-85
2021/11/12 21:55:55;;;;;;;;;39.00;33.25;;;;;;;;5089723;27;45728;-85
2021/11/12 21:58:21;;;;;;;;;34.00;31.50;;;;;;;;5092725;27;45708;-85
2021/11/12 22:00:47;;;;;;;;;36.25;33.75;;;;;;;;5093633;27;45921;-86
2021/11/12 22:03:13;;;;;;;;;36.50;32.50;;;;;;;;5090872;27;45661;-86
2021/11/12 22:05:39;;;;;;;;;42.25;37.00;;;;;;;;5093599;27;45517;-85
2021/11/12 22:08:07;;;;;;;;;40.50;36.00;;;;;;;;5091534;27;45473;-85
2021/11/12 22:10:32;;;;;;;;;39.50;34.00;;;;;;;;5091465;27;47804;-85
2021/11/12 22:12:58;;;;;;;;;36.50;34.00;;;;;;;;5093190;27;45625;-86
2021/11/12 22:15:23;;;;;;;;;38.75;36.00;;;;;;;;5091897;27;45480;-86
2021/11/12 22:17:48;;;;;;;;;42.00;36.67;;;;;;;;5092838;27;45575;-86
2021/11/12 22:20:15;;;;;;;;;41.25;35.75;;;;;;;;5092706;27;46445;-86
2021/11/12 22:22:41;;;;;;;;;38.75;34.00;;;;;;;;5092071;27;46164;-85
2021/11/12 22:25:06;;;;;;;;;39.00;34.75;;;;;;;;5091447;27;45519;-87
2021/11/12 22:27:31;;;;;;;;;35.00;30.25;;;;;;;;5091376;27;45755;-86
2021/11/12 22:29:57;;;;;;;;;37.00;33.33;;;;;;;;5093109;27;45458;-86
2021/11/12 22:32:22;;;;;;;;;39.67;34.00;;;;;;;;5092001;27;45462;-85
2021/11/12 22:34:49;;;;;;;;;37.25;34.25;;;;;;;;5076135;27;45390;-86
2021/11/12 22:37:15;;;;;;;;;40.00;35.00;;;;;;;;5070888;28;45537;-86
2021/11/12 22:39:40;;;;;;;;;31.33;30.33;;;;;;;;5072357;27;45784;-85
2021/11/12 22:42:06;;;;;;;;;36.67;32.33;;;;;;;;5071797;27;45476;-87
2021/11/12 22:44:31;;;;;;;;;35.25;32.00;;;;;;;;5070808;28;45538;-86
2021/11/12 22:46:56;;;;;;;;;41.25;35.75;;;;;;;;5071645;27;45457;-85
2021/11/12 22:49:21;;;;;;;;;35.00;33.00;;;;;;;;5070180;28;46118;-85
2021/11/12 22:51:47;;;;;;;;;37.00;34.67;;;;;;;;5071087;28;45870;-86
2021/11/12 22:54:12;;;;;;;;;33.00;29.67;;;;;;;;5072437;28;45503;-85
2021/11/12 22:56:37;;;;;;;;;34.67;32.00;;;;;;;;5071784;28;45435;-85
2021/11/12 22:59:02;;;;;;;;;33.67;31.67;;;;;;;;5071730;28;46188;-85
2021/11/12 23:01:29;;;;;;;;;31.25;30.25;;;;;;;;5071525;27;45341;-85
2021/11/12 23:03:55;;;;;;;;;32.75;29.75;;;;;;;;5070108;28;45842;-85
2021/11/12 23:06:20;;;;;;;;;35.00;31.50;;;;;;;;5070430;28;45555;-85
2021/11/12 23:08:46;;;;;;;;;33.50;29.00;;;;;;;;5070566;27;45409;-85
2021/11/12 23:11:13;;;;;;;;;33.50;31.25;;;;;;;;5071378;27;45337;-85
2021/11/12 23:13:38;;;;;;;;;35.25;32.50;;;;;;;;5072479;27;45683;-86
2021/11/12 23:16:04;;;;;;;;;30.50;30.00;;;;;;;;5071607;27;45546;-86
2021/11/12 23:18:30;;;;;;;;;36.50;30.25;;;;;;;;5071061;27;46437;-85
2021/11/12 23:20:56;;;;;;;;;36.50;33.00;;;;;;;;5070712;28;45495;-86
2021/11/12 23:23:21;;;;;;;;;33.25;30.25;;;;;;;;5070339;28;45628;-86
2021/11/12 23:25:47;;;;;;;;;35.25;31.75;;;;;;;;5071704;27;45424;-87
2021/11/12 23:28:12;;;;;;;;;33.75;31.50;;;;;;;;5069541;28;47327;-86
2021/11/12 23:30:37;;;;;;;;;33.25;28.00;;;;;;;;5070236;28;45497;-86
2021/11/12 23:33:03;;;;;;;;;31.25;29.75;;;;;;;;5071449;27;45409;-87
2021/11/12 23:35:29;;;;;;;;;33.50;30.00;;;;;;;;5090294;27;45326;-86
2021/11/12 23:37:54;;;;;;;;;32.75;29.50;;;;;;;;5092095;27;46067;-85
2021/11/12 23:40:19;;;;;;;;;32.33;26.67;;;;;;;;5090012;27;45869;-86
2021/11/12 23:42:45;;;;;;;;;30.00;29.67;;;;;;;;5092027;27;45412;-86
2021/11/12 23:45:11;;;;;;;;;30.25;28.25;;;;;;;;5091178;27;45468;-86
2021/11/12 23:47:37;;;;;;;;;32.00;29.50;;;;;;;;5089317;27;47360;-85
2021/11/12 23:50:03;;;;;;;;;33.00;25.67;;;;;;;;5089971;27;45585;-86
2021/11/12 23:52:28;;;;;;;;;27.75;25.75;;;;;;;;5091312;27;45432;-86
2021/11/12 23:54:55;;;;;;;;;28.67;27.67;;;;;;;;5090168;27;45269;-86
2021/11/12 23:57:20;;;;;;;;;29.00;28.00;;;;;;;;5091261;27;45751;-86
2021/11/12 23:59:45;;;;;;;;;25.00;23.67;;;;;;;;5090175;27;45635;-86
